Time;durP1;ratioP1;P1;durP2;ratioP2;P2;SDS_P1;SDS_P2;PMS_P1;PMS_P2;Temp;Humidity;BMP_temperature;BMP_pressure;BME280_temperature;BME280_humidity;BME280_pressure;Samples;Min_cycle;Max_cycle;Signal;HPM_P1;HPM_P2
2021/04/19 00:00:26;;;;;;;26.55;23.80;;;;;;;;;;2087819;28;20179;-62
2021/04/19 00:01:27;;;;;;;25.98;23.45;;;;;;;;;;2092342;28;20207;-62
2021/04/19 00:02:27;;;;;;;25.17;22.52;;;;;;;;;;2079909;28;20169;-61
2021/04/19 00:03:27;;;;;;;29.38;23.67;;;;;;;;;;2080893;28;20176;-63
2021/04/19 00:04:27;;;;;;;26.08;23.40;;;;;;;;;;2085592;28;20170;-60
2021/04/19 00:05:28;;;;;;;26.92;24.05;;;;;;;;;;2089853;28;20190;-61
2021/04/19 00:06:28;;;;;;;27.80;24.83;;;;;;;;;;2088378;28;20221;-62
2021/04/19 00:07:28;;;;;;;28.08;25.17;;;;;;;;;;2088162;28;20206;-62
2021/04/19 00:08:28;;;;;;;28.98;25.50;;;;;;;;;;2090014;28;20195;-62
2021/04/19 00:09:28;;;;;;;26.98;24.15;;;;;;;;;;2081139;28;20259;-61
2021/04/19 00:10:29;;;;;;;26.98;24.20;;;;;;;;;;2089663;28;20176;-63
2021/04/19 00:11:29;;;;;;;29.48;26.30;;;;;;;;;;2089718;28;20686;-60
2021/04/19 00:12:29;;;;;;;27.95;24.48;;;;;;;;;;2089454;28;20214;-61
2021/04/19 00:13:30;;;;;;;30.40;27.08;;;;;;;;;;2092424;28;20240;-63
2021/04/19 00:14:30;;;;;;;27.65;24.67;;;;;;;;;;2091434;28;20187;-61
2021/04/19 00:15:33;;;;;;;31.17;27.52;;;;;;;;;;2081072;28;20671;-63
2021/04/19 00:16:33;;;;;;;28.02;25.13;;;;;;;;;;2082579;28;20186;-62
2021/04/19 00:17:34;;;;;;;29.48;26.30;;;;;;;;;;2089527;28;20640;-60
2021/04/19 00:18:34;;;;;;;31.33;27.42;;;;;;;;;;2089062;28;20230;-60
2021/04/19 00:19:34;;;;;;;29.25;26.00;;;;;;;;;;2090158;28;20172;-60
2021/04/19 00:20:35;;;;;;;28.88;25.77;;;;;;;;;;2088500;28;20305;-58
2021/04/19 00:21:35;;;;;;;28.63;25.60;;;;;;;;;;2089163;28;20209;-60
2021/04/19 00:22:36;;;;;;;30.13;26.23;;;;;;;;;;2080266;28;20172;-61
2021/04/19 00:23:36;;;;;;;28.83;25.77;;;;;;;;;;2080687;28;20160;-61
2021/04/19 00:24:36;;;;;;;28.27;25.25;;;;;;;;;;2088604;28;20183;-61
2021/04/19 00:25:36;;;;;;;27.42;24.52;;;;;;;;;;2090807;28;20168;-61
2021/04/19 00:26:37;;;;;;;28.20;25.30;;;;;;;;;;2089073;28;20651;-62
2021/04/19 00:27:37;;;;;;;27.77;24.70;;;;;;;;;;2088779;28;20199;-60
2021/04/19 00:28:37;;;;;;;27.83;24.90;;;;;;;;;;2087126;28;20248;-60
2021/04/19 00:29:38;;;;;;;27.95;24.95;;;;;;;;;;2088385;28;20175;-60
2021/04/19 00:30:38;;;;;;;25.92;23.25;;;;;;;;;;2091029;28;20236;-61
2021/04/19 00:31:38;;;;;;;28.50;25.45;;;;;;;;;;2088236;28;20187;-60
2021/04/19 00:32:38;;;;;;;25.98;23.42;;;;;;;;;;2088457;28;20284;-56
2021/04/19 00:33:39;;;;;;;25.27;22.73;;;;;;;;;;2087784;28;20250;-59
2021/04/19 00:34:39;;;;;;;25.25;22.65;;;;;;;;;;2080606;28;20180;-60
2021/04/19 00:35:40;;;;;;;25.23;22.63;;;;;;;;;;2084236;28;20188;-60
2021/04/19 00:36:40;;;;;;;24.52;21.20;;;;;;;;;;2087430;28;20176;-60
2021/04/19 00:37:40;;;;;;;23.83;21.42;;;;;;;;;;2088283;28;20198;-61
2021/04/19 00:38:40;;;;;;;23.02;20.58;;;;;;;;;;2088317;28;20258;-58
2021/04/19 00:39:41;;;;;;;23.08;20.58;;;;;;;;;;2089307;28;20797;-57
2021/04/19 00:40:41;;;;;;;22.88;20.60;;;;;;;;;;2088103;28;20180;-58
2021/04/19 00:41:43;;;;;;;22.45;20.13;;;;;;;;;;2089922;28;20222;-61
2021/04/19 00:42:44;;;;;;;24.13;21.65;;;;;;;;;;2080099;28;20266;-59
2021/04/19 00:43:44;;;;;;;22.33;20.15;;;;;;;;;;2080528;28;20563;-61
2021/04/19 00:44:44;;;;;;;23.30;20.90;;;;;;;;;;2093592;28;20171;-59
2021/04/19 00:45:45;;;;;;;21.52;19.27;;;;;;;;;;2089711;28;20719;-61
2021/04/19 00:46:47;;;;;;;21.95;19.77;;;;;;;;;;2088421;28;20709;-60
2021/04/19 00:47:49;;;;;;;22.42;20.13;;;;;;;;;;2089105;28;20168;-59
2021/04/19 00:48:49;;;;;;;22.88;20.58;;;;;;;;;;2080765;28;20249;-60
2021/04/19 00:49:50;;;;;;;20.92;18.90;;;;;;;;;;2094459;28;20754;-59
2021/04/19 00:50:55;;;;;;;21.83;19.67;;;;;;;;;;2088842;28;20189;-59
2021/04/19 00:51:56;;;;;;;22.00;19.70;;;;;;;;;;2088644;28;20570;-60
2021/04/19 00:52:59;;;;;;;24.23;19.83;;;;;;;;;;2091435;28;20261;-60
2021/04/19 00:54:00;;;;;;;20.73;18.55;;;;;;;;;;2087820;28;20588;-61
2021/04/19 00:55:00;;;;;;;21.85;18.73;;;;;;;;;;2088759;28;20191;-60
2021/04/19 00:56:00;;;;;;;20.60;18.42;;;;;;;;;;2087983;28;20176;-61
2021/04/19 00:57:01;;;;;;;20.83;18.75;;;;;;;;;;2088472;28;20168;-59
2021/04/19 00:58:01;;;;;;;21.30;19.30;;;;;;;;;;2089201;28;20175;-60
2021/04/19 00:59:02;;;;;;;20.27;18.25;;;;;;;;;;2089802;28;20217;-60
2021/04/19 01:00:06;;;;;;;18.50;16.63;;;;;;;;;;2088383;28;20222;-60
2021/04/19 01:01:07;;;;;;;18.08;16.38;;;;;;;;;;2082838;28;20218;-61
2021/04/19 01:02:08;;;;;;;18.48;16.58;;;;;;;;;;2079520;28;20305;-60
2021/04/19 01:03:09;;;;;;;17.58;15.88;;;;;;;;;;2088479;28;20183;-59
2021/04/19 01:04:09;;;;;;;16.45;14.85;;;;;;;;;;2088071;28;20275;-58
2021/04/19 01:05:14;;;;;;;15.02;13.45;;;;;;;;;;2089197;28;20176;-58
2021/04/19 01:06:15;;;;;;;15.20;13.60;;;;;;;;;;2084001;28;20203;-59
2021/04/19 01:07:16;;;;;;;14.40;13.13;;;;;;;;;;2087809;28;20729;-61
2021/04/19 01:08:16;;;;;;;15.20;13.70;;;;;;;;;;2088866;28;20251;-61
2021/04/19 01:09:17;;;;;;;14.07;12.68;;;;;;;;;;2087087;28;20186;-61
2021/04/19 01:10:18;;;;;;;13.73;12.35;;;;;;;;;;2086224;28;20168;-60
2021/04/19 01:11:19;;;;;;;12.98;11.60;;;;;;;;;;2086479;28;20311;-58
2021/04/19 01:12:21;;;;;;;12.60;11.40;;;;;;;;;;2088580;28;20218;-60
2021/04/19 01:13:22;;;;;;;12.30;11.13;;;;;;;;;;2080250;28;20180;-60
2021/04/19 01:14:22;;;;;;;10.27;9.48;;;;;;;;;;2078453;28;20176;-61
2021/04/19 01:15:22;;;;;;;10.38;9.48;;;;;;;;;;2084369;28;20175;-59
2021/04/19 01:16:24;;;;;;;10.65;9.68;;;;;;;;;;2090217;28;20168;-62
2021/04/19 01:17:26;;;;;;;9.43;8.63;;;;;;;;;;2092174;28;20250;-61
2021/04/19 01:18:26;;;;;;;9.15;8.35;;;;;;;;;;2087914;28;20575;-60
2021/04/19 01:19:27;;;;;;;10.30;9.02;;;;;;;;;;2088853;28;20215;-59
2021/04/19 01:20:30;;;;;;;9.85;9.05;;;;;;;;;;2089369;28;20172;-60
2021/04/19 01:21:30;;;;;;;9.05;8.25;;;;;;;;;;2084223;28;20203;-61
2021/04/19 01:22:30;;;;;;;9.48;8.57;;;;;;;;;;2088513;28;20293;-58
2021/04/19 01:23:31;;;;;;;10.43;9.48;;;;;;;;;;2079557;28;20247;-62
2021/04/19 01:24:33;;;;;;;9.45;8.63;;;;;;;;;;2088162;28;20199;-60
2021/04/19 01:25:34;;;;;;;10.15;9.25;;;;;;;;;;2088960;28;20621;-60
2021/04/19 01:26:35;;;;;;;10.10;9.10;;;;;;;;;;2089511;28;20167;-60
2021/04/19 01:27:35;;;;;;;9.23;8.52;;;;;;;;;;2090323;28;20254;-61
2021/04/19 01:28:35;;;;;;;9.30;8.50;;;;;;;;;;2088358;28;20218;-59
2021/04/19 01:29:36;;;;;;;9.00;8.20;;;;;;;;;;2079961;28;20230;-60
2021/04/19 01:30:40;;;;;;;8.23;7.43;;;;;;;;;;2080490;28;20235;-58
2021/04/19 01:31:40;;;;;;;8.35;7.65;;;;;;;;;;2090441;28;20293;-59
2021/04/19 01:32:45;;;;;;;8.95;8.25;;;;;;;;;;2080194;28;20555;-58
2021/04/19 01:33:45;;;;;;;8.73;8.02;;;;;;;;;;2081722;28;20207;-59
2021/04/19 01:34:46;;;;;;;7.72;7.10;;;;;;;;;;2090080;28;20171;-60
2021/04/19 01:35:46;;;;;;;8.25;7.55;;;;;;;;;;2096450;28;20175;-59
2021/04/19 01:36:47;;;;;;;7.45;6.85;;;;;;;;;;2073997;28;20215;-61
2021/04/19 01:37:50;;;;;;;7.65;7.05;;;;;;;;;;2082890;28;20182;-61
2021/04/19 01:38:51;;;;;;;8.15;7.45;;;;;;;;;;2088116;28;20179;-59
2021/04/19 01:39:51;;;;;;;8.10;7.47;;;;;;;;;;2089324;28;20182;-61
2021/04/19 01:40:55;;;;;;;8.15;7.55;;;;;;;;;;2087598;28;20199;-59
2021/04/19 01:41:56;;;;;;;7.35;6.75;;;;;;;;;;2088869;28;20179;-58
2021/04/19 01:42:56;;;;;;;7.88;7.28;;;;;;;;;;2081939;28;20204;-61
2021/04/19 01:43:57;;;;;;;7.72;7.00;;;;;;;;;;2089901;28;20163;-61
2021/04/19 01:44:59;;;;;;;7.68;6.97;;;;;;;;;;2081969;28;20179;-61
2021/04/19 01:46:01;;;;;;;8.05;7.38;;;;;;;;;;2081362;28;20228;-59
2021/04/19 01:47:01;;;;;;;6.90;6.40;;;;;;;;;;2081711;28;20172;-61
2021/04/19 01:48:02;;;;;;;7.72;7.03;;;;;;;;;;2090359;28;20175;-61
2021/04/19 01:49:10;;;;;;;7.03;6.43;;;;;;;;;;2089961;28;20195;-62
2021/04/19 01:50:12;;;;;;;6.90;6.35;;;;;;;;;;2090500;28;20232;-61
2021/04/19 01:51:12;;;;;;;7.28;6.70;;;;;;;;;;2083417;28;20200;-61
2021/04/19 01:52:14;;;;;;;6.82;6.22;;;;;;;;;;2078635;28;20691;-61
2021/04/19 01:53:14;;;;;;;6.75;6.25;;;;;;;;;;2085455;28;20183;-59
2021/04/19 01:54:17;;;;;;;7.53;6.93;;;;;;;;;;2088609;28;20205;-61
2021/04/19 01:55:18;;;;;;;7.38;6.88;;;;;;;;;;2086160;28;20317;-59
2021/04/19 01:56:20;;;;;;;7.65;7.05;;;;;;;;;;2089064;28;20264;-61
2021/04/19 01:57:21;;;;;;;7.78;7.20;;;;;;;;;;2089621;28;20267;-62
2021/04/19 01:58:23;;;;;;;7.88;7.18;;;;;;;;;;2089341;28;20187;-61
2021/04/19 01:59:24;;;;;;;8.32;7.63;;;;;;;;;;2089535;28;20178;-61
2021/04/19 02:00:27;;;;;;;7.55;6.95;;;;;;;;;;2087078;28;20179;-61
2021/04/19 02:01:31;;;;;;;8.23;7.63;;;;;;;;;;2092022;28;20210;-61
2021/04/19 02:02:34;;;;;;;8.15;7.45;;;;;;;;;;2082032;28;20164;-61
2021/04/19 02:03:53;;;;;;;8.80;8.00;;;;;;;;;;2079529;28;20160;-60
2021/04/19 02:05:16;;;;;;;8.32;7.63;;;;;;;;;;2077796;28;20168;-59
2021/04/19 02:06:38;;;;;;;8.35;7.65;;;;;;;;;;2089897;28;20213;-61
2021/04/19 02:07:42;;;;;;;8.70;8.00;;;;;;;;;;2090025;28;20183;-59
2021/04/19 02:08:49;;;;;;;9.10;7.97;;;;;;;;;;2084531;28;20206;-62
2021/04/19 02:09:54;;;;;;;8.70;7.90;;;;;;;;;;2090967;28;20171;-60
2021/04/19 02:10:55;;;;;;;8.38;7.68;;;;;;;;;;2083186;28;20176;-61
2021/04/19 02:12:07;;;;;;;9.18;8.38;;;;;;;;;;2088380;28;20262;-60
2021/04/19 02:13:08;;;;;;;9.60;8.70;;;;;;;;;;2082527;28;20184;-61
2021/04/19 02:14:13;;;;;;;9.75;8.95;;;;;;;;;;2089922;28;20167;-61
2021/04/19 02:15:16;;;;;;;10.23;9.27;;;;;;;;;;2091167;28;20163;-61
2021/04/19 02:16:19;;;;;;;10.15;9.15;;;;;;;;;;2090915;28;20233;-59
2021/04/19 02:17:29;;;;;;;10.10;9.10;;;;;;;;;;2091142;28;20213;-62
2021/04/19 02:18:50;;;;;;;10.85;9.93;;;;;;;;;;2090391;28;20259;-63
2021/04/19 02:19:53;;;;;;;10.85;9.85;;;;;;;;;;2083303;28;20253;-61
2021/04/19 02:21:14;;;;;;;11.48;10.48;;;;;;;;;;2090250;28;20180;-61
2021/04/19 02:22:23;;;;;;;12.38;11.07;;;;;;;;;;2077674;28;20218;-58
2021/04/19 02:23:28;;;;;;;11.45;10.35;;;;;;;;;;2079788;28;20187;-62
2021/04/19 02:24:30;;;;;;;11.77;10.57;;;;;;;;;;2089203;28;20155;-61
2021/04/19 02:25:33;;;;;;;12.95;11.63;;;;;;;;;;2091225;28;20179;-62
2021/04/19 02:26:36;;;;;;;12.50;11.43;;;;;;;;;;2088532;28;20194;-59
2021/04/19 02:27:39;;;;;;;12.25;10.95;;;;;;;;;;2089992;28;20175;-59
2021/04/19 02:28:54;;;;;;;13.48;11.48;;;;;;;;;;2081443;28;20263;-59
2021/04/19 02:29:55;;;;;;;13.32;12.05;;;;;;;;;;2082457;28;20166;-61
2021/04/19 02:30:59;;;;;;;14.02;12.52;;;;;;;;;;2083346;28;20171;-61
2021/04/19 02:32:02;;;;;;;12.77;11.57;;;;;;;;;;2079500;28;20210;-60
2021/04/19 02:33:14;;;;;;;12.07;10.90;;;;;;;;;;2082436;28;20711;-59
2021/04/19 02:34:16;;;;;;;13.05;11.63;;;;;;;;;;2086787;28;20652;-62
2021/04/19 02:35:19;;;;;;;12.05;10.95;;;;;;;;;;2085271;28;20206;-59
2021/04/19 02:36:34;;;;;;;12.60;11.30;;;;;;;;;;2089112;28;20551;-57
2021/04/19 02:37:35;;;;;;;12.38;11.05;;;;;;;;;;2087296;28;20175;-60
2021/04/19 02:38:37;;;;;;;11.88;10.73;;;;;;;;;;2089360;28;20175;-58
2021/04/19 02:39:41;;;;;;;12.57;11.18;;;;;;;;;;2088555;28;20705;-59
2021/04/19 02:40:42;;;;;;;12.75;11.52;;;;;;;;;;2089341;28;20668;-57
2021/04/19 02:41:45;;;;;;;12.50;11.20;;;;;;;;;;2086704;28;20203;-58
2021/04/19 02:42:50;;;;;;;12.98;11.50;;;;;;;;;;2081788;28;20254;-58
2021/04/19 02:43:51;;;;;;;11.73;10.57;;;;;;;;;;2081275;28;20583;-61
2021/04/19 02:45:05;;;;;;;12.45;11.25;;;;;;;;;;2088915;28;20217;-60
2021/04/19 02:46:27;;;;;;;12.55;11.25;;;;;;;;;;2084143;28;20637;-59
2021/04/19 02:47:28;;;;;;;12.88;11.68;;;;;;;;;;2089951;28;20676;-60
2021/04/19 02:48:46;;;;;;;12.48;11.30;;;;;;;;;;2089183;28;20167;-59
2021/04/19 02:49:52;;;;;;;12.23;11.02;;;;;;;;;;2082090;28;20183;-59
2021/04/19 02:50:54;;;;;;;12.00;10.73;;;;;;;;;;2089206;28;20179;-56
2021/04/19 02:51:54;;;;;;;12.30;11.20;;;;;;;;;;2096037;28;20175;-57
2021/04/19 02:52:56;;;;;;;12.02;10.93;;;;;;;;;;2089807;28;20167;-57
2021/04/19 02:53:57;;;;;;;11.80;10.65;;;;;;;;;;2095907;28;20175;-59
2021/04/19 02:54:58;;;;;;;11.82;10.63;;;;;;;;;;2091134;28;20242;-58
2021/04/19 02:55:59;;;;;;;12.00;10.90;;;;;;;;;;2089305;28;20246;-61
2021/04/19 02:57:00;;;;;;;12.23;11.00;;;;;;;;;;2089690;28;20168;-56
2021/04/19 02:58:02;;;;;;;12.35;11.15;;;;;;;;;;2089802;28;20164;-59
2021/04/19 02:59:06;;;;;;;13.27;11.98;;;;;;;;;;2088949;28;20163;-57
2021/04/19 03:00:10;;;;;;;12.55;11.25;;;;;;;;;;2090106;28;20156;-58
2021/04/19 03:01:18;;;;;;;13.10;11.80;;;;;;;;;;2089489;28;20167;-59
2021/04/19 03:02:27;;;;;;;13.43;12.02;;;;;;;;;;2092247;28;20553;-60
2021/04/19 03:03:30;;;;;;;13.13;11.73;;;;;;;;;;2078424;28;20182;-61
2021/04/19 03:04:37;;;;;;;15.63;12.23;;;;;;;;;;2087400;28;20171;-60
2021/04/19 03:05:48;;;;;;;13.25;11.95;;;;;;;;;;2089253;28;20246;-61
2021/04/19 03:06:50;;;;;;;14.48;13.07;;;;;;;;;;2089393;28;20243;-62
2021/04/19 03:07:55;;;;;;;15.00;13.43;;;;;;;;;;2088699;28;20543;-61
2021/04/19 03:09:00;;;;;;;14.70;13.25;;;;;;;;;;2090283;28;20168;-59
2021/04/19 03:10:08;;;;;;;14.80;13.10;;;;;;;;;;2089265;28;20206;-60
2021/04/19 03:11:12;;;;;;;14.90;13.45;;;;;;;;;;2090183;28;20514;-61
2021/04/19 03:12:13;;;;;;;14.93;13.52;;;;;;;;;;2097637;28;20628;-58
2021/04/19 03:13:22;;;;;;;16.15;13.65;;;;;;;;;;2085680;28;20568;-59
2021/04/19 03:14:24;;;;;;;15.68;14.07;;;;;;;;;;2089527;28;20267;-62
2021/04/19 03:15:38;;;;;;;15.43;13.88;;;;;;;;;;2088695;28;20171;-59
2021/04/19 03:16:46;;;;;;;17.67;14.55;;;;;;;;;;2082824;28;20240;-60
2021/04/19 03:17:48;;;;;;;16.40;14.57;;;;;;;;;;2080503;28;20176;-59
2021/04/19 03:18:51;;;;;;;17.58;15.10;;;;;;;;;;2081699;28;20246;-60
2021/04/19 03:19:59;;;;;;;18.48;16.58;;;;;;;;;;2088945;28;20757;-59
2021/04/19 03:21:06;;;;;;;19.60;17.23;;;;;;;;;;2091657;28;20262;-61
2021/04/19 03:22:13;;;;;;;20.20;17.77;;;;;;;;;;2091993;28;20207;-61
2021/04/19 03:23:14;;;;;;;19.52;17.42;;;;;;;;;;2088764;28;20176;-59
2021/04/19 03:24:23;;;;;;;20.83;17.88;;;;;;;;;;2085036;28;20160;-59
2021/04/19 03:25:43;;;;;;;19.80;17.33;;;;;;;;;;2083386;28;20268;-59
2021/04/19 03:26:45;;;;;;;19.13;17.08;;;;;;;;;;2081996;28;20213;-59
2021/04/19 03:27:47;;;;;;;20.42;17.55;;;;;;;;;;2087009;28;20172;-57
2021/04/19 03:28:49;;;;;;;19.35;17.25;;;;;;;;;;2081548;28;20164;-56
2021/04/19 03:29:57;;;;;;;18.65;16.65;;;;;;;;;;2081474;28;20175;-60
2021/04/19 03:30:57;;;;;;;21.60;17.45;;;;;;;;;;2079425;28;20597;-57
2021/04/19 03:32:08;;;;;;;18.75;16.58;;;;;;;;;;2077863;28;20169;-60
2021/04/19 03:33:13;;;;;;;22.50;18.10;;;;;;;;;;2081175;28;20602;-58
2021/04/19 03:34:28;;;;;;;19.92;17.83;;;;;;;;;;2081002;28;20255;-60
2021/04/19 03:35:31;;;;;;;19.40;17.33;;;;;;;;;;2089406;28;20582;-58
2021/04/19 03:36:34;;;;;;;20.45;17.63;;;;;;;;;;2090757;28;20583;-59
2021/04/19 03:37:37;;;;;;;20.75;18.15;;;;;;;;;;2089137;28;20176;-58
2021/04/19 03:38:38;;;;;;;21.15;18.88;;;;;;;;;;2081635;28;20172;-60
2021/04/19 03:39:39;;;;;;;20.42;17.55;;;;;;;;;;2081618;28;20202;-60
2021/04/19 03:40:40;;;;;;;19.45;17.48;;;;;;;;;;2081532;28;20207;-60
2021/04/19 03:41:47;;;;;;;20.50;18.13;;;;;;;;;;2085016;28;20286;-58
2021/04/19 03:42:51;;;;;;;19.33;17.13;;;;;;;;;;2072862;28;20165;-59
2021/04/19 03:43:57;;;;;;;20.05;17.85;;;;;;;;;;2074345;28;20166;-61
2021/04/19 03:44:59;;;;;;;20.08;17.70;;;;;;;;;;2085322;28;20180;-61
2021/04/19 03:46:20;;;;;;;19.80;17.70;;;;;;;;;;2090443;28;20151;-61
2021/04/19 03:47:47;;;;;;;21.60;18.33;;;;;;;;;;2087936;28;20660;-59
2021/04/19 03:49:05;;;;;;;18.77;16.20;;;;;;;;;;2087398;28;20171;-60
2021/04/19 03:50:16;;;;;;;21.17;18.40;;;;;;;;;;2083233;28;20223;-62
2021/04/19 03:51:26;;;;;;;23.40;18.35;;;;;;;;;;2076557;28;20200;-61
2021/04/19 03:52:30;;;;;;;21.25;18.58;;;;;;;;;;2095461;28;20578;-62
2021/04/19 03:53:31;;;;;;;20.15;18.05;;;;;;;;;;2086530;28;20721;-60
2021/04/19 03:54:35;;;;;;;23.25;19.13;;;;;;;;;;2081178;28;20176;-60
2021/04/19 03:55:36;;;;;;;21.50;19.17;;;;;;;;;;2079816;28;20172;-60
2021/04/19 03:56:37;;;;;;;23.02;19.52;;;;;;;;;;2088703;28;20176;-60
2021/04/19 03:57:44;;;;;;;22.30;19.20;;;;;;;;;;2089432;28;20179;-62
2021/04/19 03:58:47;;;;;;;20.35;18.20;;;;;;;;;;2081345;28;20168;-60
2021/04/19 03:59:53;;;;;;;21.60;18.98;;;;;;;;;;2090479;28;20180;-59
2021/04/19 04:01:03;;;;;;;21.52;18.67;;;;;;;;;;2085192;28;20179;-61
2021/04/19 04:02:28;;;;;;;20.73;18.02;;;;;;;;;;2080331;28;20501;-59
2021/04/19 04:03:36;;;;;;;21.85;19.02;;;;;;;;;;2081339;28;20173;-60
2021/04/19 04:04:58;;;;;;;21.90;19.13;;;;;;;;;;2075420;28;20652;-60
2021/04/19 04:06:17;;;;;;;21.83;18.65;;;;;;;;;;2088314;28;20184;-62
2021/04/19 04:07:18;;;;;;;19.20;17.25;;;;;;;;;;2089136;28;20242;-60
2021/04/19 04:08:24;;;;;;;21.10;18.48;;;;;;;;;;2081365;28;20591;-61
2021/04/19 04:09:25;;;;;;;21.50;17.85;;;;;;;;;;2081066;28;20173;-61
2021/04/19 04:10:26;;;;;;;21.58;19.15;;;;;;;;;;2089145;28;20252;-59
2021/04/19 04:11:27;;;;;;;21.00;18.70;;;;;;;;;;2089361;28;20683;-61
2021/04/19 04:12:50;;;;;;;24.88;19.42;;;;;;;;;;2076735;28;20668;-58
2021/04/19 04:13:53;;;;;;;22.98;19.38;;;;;;;;;;2088775;28;20180;-60
2021/04/19 04:14:56;;;;;;;24.75;19.42;;;;;;;;;;2088764;28;20618;-60
2021/04/19 04:16:04;;;;;;;20.90;17.98;;;;;;;;;;2081726;28;20187;-61
2021/04/19 04:17:13;;;;;;;21.70;19.17;;;;;;;;;;2088929;28;20258;-60
2021/04/19 04:18:34;;;;;;;19.55;17.45;;;;;;;;;;2083094;28;20192;-60
2021/04/19 04:19:36;;;;;;;17.48;15.68;;;;;;;;;;2087694;28;20167;-59
2021/04/19 04:20:43;;;;;;;17.55;15.68;;;;;;;;;;2091073;28;20163;-60
2021/04/19 04:21:48;;;;;;;19.30;15.40;;;;;;;;;;2089713;28;20334;-59
2021/04/19 04:23:18;;;;;;;16.55;14.85;;;;;;;;;;2071066;28;20180;-60
2021/04/19 04:24:20;;;;;;;19.35;15.82;;;;;;;;;;2080739;28;20207;-57
2021/04/19 04:25:20;;;;;;;19.75;16.08;;;;;;;;;;2088561;28;20176;-60
2021/04/19 04:26:23;;;;;;;17.63;15.15;;;;;;;;;;2080356;28;20187;-59
2021/04/19 04:27:24;;;;;;;16.92;15.13;;;;;;;;;;2080754;28;20172;-61
2021/04/19 04:28:25;;;;;;;18.67;16.17;;;;;;;;;;2084212;28;20197;-61
2021/04/19 04:29:34;;;;;;;18.67;15.82;;;;;;;;;;2083350;28;20171;-60
2021/04/19 04:30:59;;;;;;;18.50;16.38;;;;;;;;;;2088871;28;20778;-60
2021/04/19 04:32:06;;;;;;;18.10;16.30;;;;;;;;;;2084620;28;20501;-57
2021/04/19 04:33:08;;;;;;;18.45;16.42;;;;;;;;;;2079207;28;20180;-60
2021/04/19 04:34:13;;;;;;;18.90;16.83;;;;;;;;;;2081142;28;20696;-60
2021/04/19 04:35:16;;;;;;;19.77;16.27;;;;;;;;;;2092292;28;20194;-60
2021/04/19 04:36:21;;;;;;;18.75;16.55;;;;;;;;;;2089622;28;20167;-59
2021/04/19 04:37:28;;;;;;;17.77;15.88;;;;;;;;;;2083925;28;20164;-59
2021/04/19 04:38:41;;;;;;;18.30;16.20;;;;;;;;;;2080345;28;20187;-60
2021/04/19 04:39:46;;;;;;;17.85;16.02;;;;;;;;;;2081570;28;20164;-61
2021/04/19 04:40:46;;;;;;;17.65;15.57;;;;;;;;;;2080346;28;20173;-60
2021/04/19 04:41:47;;;;;;;18.60;16.63;;;;;;;;;;2090495;28;20294;-60
2021/04/19 04:42:48;;;;;;;17.88;15.98;;;;;;;;;;2088835;28;20694;-59
2021/04/19 04:43:51;;;;;;;18.70;16.23;;;;;;;;;;2088390;28;20259;-57
2021/04/19 04:44:51;;;;;;;17.85;15.95;;;;;;;;;;2084502;28;20190;-60
2021/04/19 04:45:54;;;;;;;18.05;15.40;;;;;;;;;;2089825;28;20167;-59
2021/04/19 04:47:00;;;;;;;17.73;15.82;;;;;;;;;;2091861;28;20628;-60
2021/04/19 04:48:09;;;;;;;20.52;17.02;;;;;;;;;;2080966;28;20184;-60
2021/04/19 04:49:13;;;;;;;20.15;17.02;;;;;;;;;;2088817;28;20659;-57
2021/04/19 04:50:15;;;;;;;18.42;16.52;;;;;;;;;;2088578;28;20187;-59
2021/04/19 04:51:19;;;;;;;20.15;16.63;;;;;;;;;;2082362;28;20600;-60
2021/04/19 04:52:20;;;;;;;18.45;15.68;;;;;;;;;;2091482;28;20178;-60
2021/04/19 04:53:32;;;;;;;18.33;16.35;;;;;;;;;;2089014;28;20531;-59
2021/04/19 04:54:34;;;;;;;16.60;14.65;;;;;;;;;;2087987;28;20187;-58
2021/04/19 04:55:34;;;;;;;17.05;15.25;;;;;;;;;;2080986;28;20171;-60
2021/04/19 04:56:36;;;;;;;18.00;16.10;;;;;;;;;;2090386;28;20810;-59
2021/04/19 04:57:37;;;;;;;18.33;16.30;;;;;;;;;;2080105;28;20234;-60
2021/04/19 04:58:38;;;;;;;17.90;16.00;;;;;;;;;;2073668;28;20251;-60
2021/04/19 04:59:39;;;;;;;18.10;16.17;;;;;;;;;;2080642;28;20183;-58
2021/04/19 05:00:40;;;;;;;19.92;16.08;;;;;;;;;;2089821;28;20646;-60
2021/04/19 05:01:42;;;;;;;18.50;16.60;;;;;;;;;;2087245;28;20234;-60
2021/04/19 05:02:44;;;;;;;19.83;17.42;;;;;;;;;;2088402;28;20666;-58
2021/04/19 05:03:45;;;;;;;22.08;17.00;;;;;;;;;;2087333;28;20179;-59
2021/04/19 05:04:45;;;;;;;18.55;16.38;;;;;;;;;;2092199;28;20186;-60
2021/04/19 05:05:46;;;;;;;20.20;16.25;;;;;;;;;;2088958;28;20357;-60
2021/04/19 05:06:46;;;;;;;18.27;15.88;;;;;;;;;;2089553;28;20518;-60
2021/04/19 05:07:47;;;;;;;18.60;16.63;;;;;;;;;;2089460;28;20167;-58
2021/04/19 05:08:48;;;;;;;18.17;16.17;;;;;;;;;;2089562;28;20175;-57
2021/04/19 05:09:49;;;;;;;19.42;16.77;;;;;;;;;;2088158;28;20194;-60
2021/04/19 05:10:49;;;;;;;20.02;17.90;;;;;;;;;;2088014;28;20184;-59
2021/04/19 05:11:49;;;;;;;19.15;17.10;;;;;;;;;;2072380;28;20208;-62
2021/04/19 05:12:50;;;;;;;19.30;17.02;;;;;;;;;;2080748;28;20191;-58
2021/04/19 05:13:50;;;;;;;19.50;17.08;;;;;;;;;;2113047;22;20226;-57
2021/04/19 05:14:57;;;;;;;18.50;16.55;;;;;;;;;;2102705;28;20168;-56
2021/04/19 05:15:57;;;;;;;21.75;17.63;;;;;;;;;;2101760;28;20175;-60
2021/04/19 05:16:58;;;;;;;18.58;16.08;;;;;;;;;;2096150;28;20167;-63
2021/04/19 05:17:58;;;;;;;18.45;16.30;;;;;;;;;;2097770;28;20182;-60
2021/04/19 05:19:02;;;;;;;19.88;16.92;;;;;;;;;;2105733;28;20154;-58
2021/04/19 05:20:04;;;;;;;20.35;17.25;;;;;;;;;;2105931;28;20193;-59
2021/04/19 05:21:05;;;;;;;20.92;17.05;;;;;;;;;;2107712;28;20667;-59
2021/04/19 05:22:08;;;;;;;18.67;16.67;;;;;;;;;;2102368;28;20191;-59
2021/04/19 05:23:09;;;;;;;19.27;16.92;;;;;;;;;;2106484;28;20178;-59
2021/04/19 05:24:09;;;;;;;22.02;16.98;;;;;;;;;;2106524;28;20189;-57
2021/04/19 05:25:10;;;;;;;19.92;17.75;;;;;;;;;;2108523;28;20200;-60
2021/04/19 05:26:10;;;;;;;18.38;16.48;;;;;;;;;;2106455;28;20174;-58
2021/04/19 05:27:11;;;;;;;19.42;17.38;;;;;;;;;;2106682;28;20954;-59
2021/04/19 05:28:15;;;;;;;20.00;17.80;;;;;;;;;;2105344;28;20179;-58
2021/04/19 05:29:16;;;;;;;18.65;16.58;;;;;;;;;;2103844;28;20642;-59
2021/04/19 05:30:17;;;;;;;20.08;16.98;;;;;;;;;;2101064;28;20178;-59
2021/04/19 05:31:17;;;;;;;18.52;16.60;;;;;;;;;;2104810;28;20289;-59
2021/04/19 05:32:18;;;;;;;19.73;16.95;;;;;;;;;;2105282;28;20170;-60
2021/04/19 05:33:19;;;;;;;20.27;16.77;;;;;;;;;;2104773;28;20174;-59
2021/04/19 05:34:19;;;;;;;18.80;16.80;;;;;;;;;;2106133;28;20253;-59
2021/04/19 05:35:20;;;;;;;17.90;15.48;;;;;;;;;;2100300;28;20673;-58
2021/04/19 05:36:22;;;;;;;35.13;31.27;;;;;;;;;;2101461;28;20253;-58
2021/04/19 05:37:24;;;;;;;25.63;21.42;;;;;;;;;;2100769;28;20170;-59
2021/04/19 05:38:25;;;;;;;23.80;20.48;;;;;;;;;;2109539;28;20202;-59
2021/04/19 05:39:25;;;;;;;24.42;21.83;;;;;;;;;;2105513;28;20178;-59
2021/04/19 05:40:27;;;;;;;24.60;20.50;;;;;;;;;;2104956;28;20185;-61
2021/04/19 05:41:28;;;;;;;22.67;19.67;;;;;;;;;;2105535;28;20212;-59
2021/04/19 05:42:28;;;;;;;21.33;18.27;;;;;;;;;;2105987;28;20249;-58
2021/04/19 05:43:29;;;;;;;23.92;19.23;;;;;;;;;;2105292;28;20179;-59
2021/04/19 05:44:30;;;;;;;22.75;18.83;;;;;;;;;;2105285;28;20239;-59
2021/04/19 05:45:31;;;;;;;22.98;19.85;;;;;;;;;;2097017;28;20179;-62
2021/04/19 05:46:31;;;;;;;20.15;17.20;;;;;;;;;;2101965;28;20723;-59
2021/04/19 05:47:31;;;;;;;23.10;18.05;;;;;;;;;;2101916;28;20174;-59
2021/04/19 05:48:32;;;;;;;23.25;20.73;;;;;;;;;;2101684;28;20171;-59
2021/04/19 05:49:32;;;;;;;22.55;19.20;;;;;;;;;;2103571;28;20219;-60
2021/04/19 05:50:32;;;;;;;20.63;17.20;;;;;;;;;;2103737;28;20710;-60
2021/04/19 05:51:39;;;;;;;21.88;17.23;;;;;;;;;;2104768;28;20273;-60
2021/04/19 05:52:40;;;;;;;20.40;17.38;;;;;;;;;;2105313;28;20630;-58
2021/04/19 05:53:40;;;;;;;23.15;17.60;;;;;;;;;;2105687;28;20194;-62
2021/04/19 05:54:41;;;;;;;19.85;17.67;;;;;;;;;;2103186;28;20268;-59
2021/04/19 05:55:43;;;;;;;23.35;17.88;;;;;;;;;;2102878;28;20631;-58
2021/04/19 05:57:02;;;;;;;21.73;17.65;;;;;;;;;;2105242;28;20193;-59
2021/04/19 05:58:05;;;;;;;22.80;18.40;;;;;;;;;;2099386;28;20202;-61
2021/04/19 05:59:16;;;;;;;22.75;18.80;;;;;;;;;;2105277;28;20681;-59
2021/04/19 06:00:30;;;;;;;22.30;18.30;;;;;;;;;;2101700;28;20553;-59
2021/04/19 06:01:31;;;;;;;23.85;19.35;;;;;;;;;;2101289;28;20220;-60
2021/04/19 06:02:41;;;;;;;24.77;19.17;;;;;;;;;;2103542;28;20602;-58
2021/04/19 06:03:44;;;;;;;22.63;18.10;;;;;;;;;;2102249;28;20235;-56
2021/04/19 06:04:48;;;;;;;26.75;19.83;;;;;;;;;;2109791;28;20170;-58
2021/04/19 06:05:54;;;;;;;23.63;19.65;;;;;;;;;;2105376;28;20174;-57
2021/04/19 06:07:03;;;;;;;25.60;20.67;;;;;;;;;;2102177;28;20556;-55
2021/04/19 06:08:32;;;;;;;29.02;21.67;;;;;;;;;;2105875;28;20173;-56
2021/04/19 06:09:50;;;;;;;26.13;21.00;;;;;;;;;;2106447;28;20596;-57
2021/04/19 06:11:13;;;;;;;25.27;20.73;;;;;;;;;;2100405;28;20524;-57
2021/04/19 06:12:29;;;;;;;28.98;22.67;;;;;;;;;;2098719;28;20171;-57
2021/04/19 06:13:31;;;;;;;28.40;21.70;;;;;;;;;;2098402;28;20175;-63